sensor_id;sensor_type;location;lat;lon;timestamp;temperature;humidity
26408;DHT22;14583;43.604;1.364;2023-07-09T00:00:49;25.80;98.40
26408;DHT22;14583;43.604;1.364;2023-07-09T00:03:15;25.80;98.90
26408;DHT22;14583;43.604;1.364;2023-07-09T00:05:42;25.80;98.90
26408;DHT22;14583;43.604;1.364;2023-07-09T00:08:28;25.80;98.60
26408;DHT22;14583;43.604;1.364;2023-07-09T00:10:56;25.70;98.80
26408;DHT22;14583;43.604;1.364;2023-07-09T00:13:23;25.70;98.60
26408;DHT22;14583;43.604;1.364;2023-07-09T00:15:50;25.80;98.70
26408;DHT22;14583;43.604;1.364;2023-07-09T00:18:16;25.60;98.40
26408;DHT22;14583;43.604;1.364;2023-07-09T00:20:42;25.60;99.10
26408;DHT22;14583;43.604;1.364;2023-07-09T00:23:13;25.50;99.30
26408;DHT22;14583;43.604;1.364;2023-07-09T00:25:43;25.50;99.10
26408;DHT22;14583;43.604;1.364;2023-07-09T00:28:19;25.60;99.40
26408;DHT22;14583;43.604;1.364;2023-07-09T00:30:46;25.50;99.20
26408;DHT22;14583;43.604;1.364;2023-07-09T00:33:14;25.60;99.40
26408;DHT22;14583;43.604;1.364;2023-07-09T00:35:43;25.50;99.00
26408;DHT22;14583;43.604;1.364;2023-07-09T00:38:20;25.50;99.30
26408;DHT22;14583;43.604;1.364;2023-07-09T00:43:28;25.30;99.50
26408;DHT22;14583;43.604;1.364;2023-07-09T00:48:40;25.40;99.60
26408;DHT22;14583;43.604;1.364;2023-07-09T00:51:18;25.40;99.70
26408;DHT22;14583;43.604;1.364;2023-07-09T00:53:47;25.40;99.30
26408;DHT22;14583;43.604;1.364;2023-07-09T00:56:27;25.30;99.70
26408;DHT22;14583;43.604;1.364;2023-07-09T00:58:55;25.30;99.90
26408;DHT22;14583;43.604;1.364;2023-07-09T01:01:22;25.40;99.90
26408;DHT22;14583;43.604;1.364;2023-07-09T01:03:52;25.40;99.80
26408;DHT22;14583;43.604;1.364;2023-07-09T01:06:28;25.30;99.90
26408;DHT22;14583;43.604;1.364;2023-07-09T01:08:58;25.30;99.90
26408;DHT22;14583;43.604;1.364;2023-07-09T01:11:27;25.30;99.90
26408;DHT22;14583;43.604;1.364;2023-07-09T01:13:59;25.30;99.90
26408;DHT22;14583;43.604;1.364;2023-07-09T01:16:48;25.30;99.90
26408;DHT22;14583;43.604;1.364;2023-07-09T01:19:14;25.30;99.90
26408;DHT22;14583;43.604;1.364;2023-07-09T01:21:42;25.30;99.90
26408;DHT22;14583;43.604;1.364;2023-07-09T01:24:45;25.30;99.90
26408;DHT22;14583;43.604;1.364;2023-07-09T01:27:02;25.30;99.90
26408;DHT22;14583;43.604;1.364;2023-07-09T01:29:33;25.30;99.90
26408;DHT22;14583;43.604;1.364;2023-07-09T01:32:00;25.30;99.90
26408;DHT22;14583;43.604;1.364;2023-07-09T01:34:26;25.20;99.90
26408;DHT22;14583;43.604;1.364;2023-07-09T01:36:51;25.20;99.90
26408;DHT22;14583;43.604;1.364;2023-07-09T01:39:19;25.20;99.90
26408;DHT22;14583;43.604;1.364;2023-07-09T01:41:44;25.20;99.90
26408;DHT22;14583;43.604;1.364;2023-07-09T01:44:13;25.20;99.90
26408;DHT22;14583;43.604;1.364;2023-07-09T01:46:39;25.20;99.90
26408;DHT22;14583;43.604;1.364;2023-07-09T01:49:05;25.20;99.90
26408;DHT22;14583;43.604;1.364;2023-07-09T01:51:33;25.20;99.90
26408;DHT22;14583;43.604;1.364;2023-07-09T01:53:59;25.20;99.90
26408;DHT22;14583;43.604;1.364;2023-07-09T01:56:25;25.20;99.90
26408;DHT22;14583;43.604;1.364;2023-07-09T01:58:51;25.20;99.90
26408;DHT22;14583;43.604;1.364;2023-07-09T02:01:16;25.20;99.90
26408;DHT22;14583;43.604;1.364;2023-07-09T02:03:45;25.10;99.90
26408;DHT22;14583;43.604;1.364;2023-07-09T02:06:11;25.10;99.90
26408;DHT22;14583;43.604;1.364;2023-07-09T02:08:38;25.20;99.90
26408;DHT22;14583;43.604;1.364;2023-07-09T02:11:03;25.20;99.90
26408;DHT22;14583;43.604;1.364;2023-07-09T02:13:29;25.10;99.90
26408;DHT22;14583;43.604;1.364;2023-07-09T02:15:55;25.00;99.90
26408;DHT22;14583;43.604;1.364;2023-07-09T02:18:21;25.00;99.90
26408;DHT22;14583;43.604;1.364;2023-07-09T02:20:46;24.90;99.90
26408;DHT22;14583;43.604;1.364;2023-07-09T02:23:12;24.80;99.90
26408;DHT22;14583;43.604;1.364;2023-07-09T02:25:38;24.80;99.90
26408;DHT22;14583;43.604;1.364;2023-07-09T02:28:04;24.90;99.90
26408;DHT22;14583;43.604;1.364;2023-07-09T02:30:30;24.90;99.90
26408;DHT22;14583;43.604;1.364;2023-07-09T02:32:55;24.90;99.90
26408;DHT22;14583;43.604;1.364;2023-07-09T02:35:22;24.80;99.90
26408;DHT22;14583;43.604;1.364;2023-07-09T02:37:47;24.80;99.90
26408;DHT22;14583;43.604;1.364;2023-07-09T02:40:14;24.80;99.90
26408;DHT22;14583;43.604;1.364;2023-07-09T02:42:40;24.80;99.90
26408;DHT22;14583;43.604;1.364;2023-07-09T02:45:06;24.80;99.90
26408;DHT22;14583;43.604;1.364;2023-07-09T02:47:32;24.70;99.90
26408;DHT22;14583;43.604;1.364;2023-07-09T02:49:58;24.80;99.90
26408;DHT22;14583;43.604;1.364;2023-07-09T02:52:24;24.70;99.90
26408;DHT22;14583;43.604;1.364;2023-07-09T02:54:50;24.70;99.90
26408;DHT22;14583;43.604;1.364;2023-07-09T02:57:16;24.60;99.90
26408;DHT22;14583;43.604;1.364;2023-07-09T02:59:42;24.60;99.90
26408;DHT22;14583;43.604;1.364;2023-07-09T03:02:08;24.70;99.90
26408;DHT22;14583;43.604;1.364;2023-07-09T03:04:33;24.60;99.90
26408;DHT22;14583;43.604;1.364;2023-07-09T03:06:59;24.60;99.90
26408;DHT22;14583;43.604;1.364;2023-07-09T03:09:25;24.50;99.90
26408;DHT22;14583;43.604;1.364;2023-07-09T03:11:52;24.60;99.90
26408;DHT22;14583;43.604;1.364;2023-07-09T03:14:17;24.60;99.90
26408;DHT22;14583;43.604;1.364;2023-07-09T03:16:43;24.60;99.90
26408;DHT22;14583;43.604;1.364;2023-07-09T03:19:09;24.60;99.90
26408;DHT22;14583;43.604;1.364;2023-07-09T03:21:35;24.60;99.90
26408;DHT22;14583;43.604;1.364;2023-07-09T03:24:02;24.60;99.90
26408;DHT22;14583;43.604;1.364;2023-07-09T03:26:28;24.50;99.90
26408;DHT22;14583;43.604;1.364;2023-07-09T03:28:54;24.50;99.90
26408;DHT22;14583;43.604;1.364;2023-07-09T03:31:20;24.40;99.90
26408;DHT22;14583;43.604;1.364;2023-07-09T03:33:47;24.40;99.90
26408;DHT22;14583;43.604;1.364;2023-07-09T03:36:14;24.30;99.90
26408;DHT22;14583;43.604;1.364;2023-07-09T03:38:39;24.30;99.90
26408;DHT22;14583;43.604;1.364;2023-07-09T03:41:05;24.30;99.90
26408;DHT22;14583;43.604;1.364;2023-07-09T03:43:32;24.30;99.90
26408;DHT22;14583;43.604;1.364;2023-07-09T03:45:58;24.30;99.90
26408;DHT22;14583;43.604;1.364;2023-07-09T03:48:24;24.30;99.90
26408;DHT22;14583;43.604;1.364;2023-07-09T03:50:50;24.30;99.90
26408;DHT22;14583;43.604;1.364;2023-07-09T03:53:16;24.20;99.90
26408;DHT22;14583;43.604;1.364;2023-07-09T03:55:44;24.20;99.90
26408;DHT22;14583;43.604;1.364;2023-07-09T03:58:11;24.20;99.90
26408;DHT22;14583;43.604;1.364;2023-07-09T04:00:37;24.30;99.90
26408;DHT22;14583;43.604;1.364;2023-07-09T04:03:03;24.30;99.90
26408;DHT22;14583;43.604;1.364;2023-07-09T04:05:28;24.20;99.90
26408;DHT22;14583;43.604;1.364;2023-07-09T04:07:54;24.30;99.90
26408;DHT22;14583;43.604;1.364;2023-07-09T04:10:20;24.30;99.90
26408;DHT22;14583;43.604;1.364;2023-07-09T04:12:46;24.30;99.90
26408;DHT22;14583;43.604;1.364;2023-07-09T04:15:12;24.20;99.90
26408;DHT22;14583;43.604;1.364;2023-07-09T04:17:39;24.10;99.90
26408;DHT22;14583;43.604;1.364;2023-07-09T04:20:06;24.20;99.90
26408;DHT22;14583;43.604;1.364;2023-07-09T04:22:33;24.10;99.90
26408;DHT22;14583;43.604;1.364;2023-07-09T04:25:00;24.10;99.90
26408;DHT22;14583;43.604;1.364;2023-07-09T04:27:30;24.10;99.90
26408;DHT22;14583;43.604;1.364;2023-07-09T04:29:59;24.00;99.90
26408;DHT22;14583;43.604;1.364;2023-07-09T04:32:25;24.10;99.90
26408;DHT22;14583;43.604;1.364;2023-07-09T04:34:51;24.10;99.90
26408;DHT22;14583;43.604;1.364;2023-07-09T04:37:17;24.20;99.90
26408;DHT22;14583;43.604;1.364;2023-07-09T04:39:43;24.20;99.90
26408;DHT22;14583;43.604;1.364;2023-07-09T04:42:12;24.20;99.90
26408;DHT22;14583;43.604;1.364;2023-07-09T04:44:38;24.20;99.90
26408;DHT22;14583;43.604;1.364;2023-07-09T04:47:04;24.20;99.90
26408;DHT22;14583;43.604;1.364;2023-07-09T04:49:30;24.10;99.90
26408;DHT22;14583;43.604;1.364;2023-07-09T04:51:56;24.10;99.90
26408;DHT22;14583;43.604;1.364;2023-07-09T04:54:26;24.10;99.90
26408;DHT22;14583;43.604;1.364;2023-07-09T04:56:52;24.20;99.90
26408;DHT22;14583;43.604;1.364;2023-07-09T04:59:19;24.20;99.90
26408;DHT22;14583;43.604;1.364;2023-07-09T05:01:45;24.20;99.90
26408;DHT22;14583;43.604;1.364;2023-07-09T05:04:11;24.20;99.90
26408;DHT22;14583;43.604;1.364;2023-07-09T05:06:37;24.10;99.90
26408;DHT22;14583;43.604;1.364;2023-07-09T05:09:03;24.00;99.90
26408;DHT22;14583;43.604;1.364;2023-07-09T05:11:31;24.10;99.90
26408;DHT22;14583;43.604;1.364;2023-07-09T05:13:56;24.00;99.90
26408;DHT22;14583;43.604;1.364;2023-07-09T05:16:22;24.10;99.90
26408;DHT22;14583;43.604;1.364;2023-07-09T05:18:48;24.00;99.90
26408;DHT22;14583;43.604;1.364;2023-07-09T05:21:13;24.00;99.90
26408;DHT22;14583;43.604;1.364;2023-07-09T05:23:39;23.90;99.90
26408;DHT22;14583;43.604;1.364;2023-07-09T05:26:05;24.00;99.90
26408;DHT22;14583;43.604;1.364;2023-07-09T05:28:31;24.10;99.90
26408;DHT22;14583;43.604;1.364;2023-07-09T05:30:59;24.10;99.90
26408;DHT22;14583;43.604;1.364;2023-07-09T05:33:24;24.20;99.90
26408;DHT22;14583;43.604;1.364;2023-07-09T05:35:50;24.10;99.90
26408;DHT22;14583;43.604;1.364;2023-07-09T05:38:16;24.10;99.90
26408;DHT22;14583;43.604;1.364;2023-07-09T05:40:43;24.20;99.90
26408;DHT22;14583;43.604;1.364;2023-07-09T05:43:09;24.30;99.90
26408;DHT22;14583;43.604;1.364;2023-07-09T05:45:36;24.40;99.90
26408;DHT22;14583;43.604;1.364;2023-07-09T05:48:04;24.50;99.90
26408;DHT22;14583;43.604;1.364;2023-07-09T05:50:29;24.40;99.90
26408;DHT22;14583;43.604;1.364;2023-07-09T05:52:55;24.20;99.90
26408;DHT22;14583;43.604;1.364;2023-07-09T05:55:21;24.20;99.90
26408;DHT22;14583;43.604;1.364;2023-07-09T05:57:47;24.30;99.90
26408;DHT22;14583;43.604;1.364;2023-07-09T06:00:13;24.30;99.90
26408;DHT22;14583;43.604;1.364;2023-07-09T06:02:39;24.40;99.90
26408;DHT22;14583;43.604;1.364;2023-07-09T06:05:06;24.20;99.90
26408;DHT22;14583;43.604;1.364;2023-07-09T06:07:34;24.30;99.90
26408;DHT22;14583;43.604;1.364;2023-07-09T06:10:00;24.50;99.90
26408;DHT22;14583;43.604;1.364;2023-07-09T06:12:26;24.60;99.90
26408;DHT22;14583;43.604;1.364;2023-07-09T06:14:51;24.60;99.90
26408;DHT22;14583;43.604;1.364;2023-07-09T06:17:17;24.70;99.90
26408;DHT22;14583;43.604;1.364;2023-07-09T06:19:43;24.70;99.90
26408;DHT22;14583;43.604;1.364;2023-07-09T06:22:09;24.60;99.90
26408;DHT22;14583;43.604;1.364;2023-07-09T06:24:34;24.60;99.90
26408;DHT22;14583;43.604;1.364;2023-07-09T06:27:02;24.60;99.90
26408;DHT22;14583;43.604;1.364;2023-07-09T06:29:28;24.70;99.90
26408;DHT22;14583;43.604;1.364;2023-07-09T06:31:54;24.80;99.90
26408;DHT22;14583;43.604;1.364;2023-07-09T06:34:19;24.80;99.90
26408;DHT22;14583;43.604;1.364;2023-07-09T06:36:45;24.80;99.90
26408;DHT22;14583;43.604;1.364;2023-07-09T06:39:11;24.70;99.90
26408;DHT22;14583;43.604;1.364;2023-07-09T06:41:36;24.60;99.90
26408;DHT22;14583;43.604;1.364;2023-07-09T06:44:08;24.70;99.90
26408;DHT22;14583;43.604;1.364;2023-07-09T06:46:34;24.80;99.90
26408;DHT22;14583;43.604;1.364;2023-07-09T06:49:00;24.90;99.90
26408;DHT22;14583;43.604;1.364;2023-07-09T06:51:26;25.10;99.90
26408;DHT22;14583;43.604;1.364;2023-07-09T06:53:51;24.80;99.90
26408;DHT22;14583;43.604;1.364;2023-07-09T06:56:17;24.80;99.90
26408;DHT22;14583;43.604;1.364;2023-07-09T06:58:43;24.90;99.90
26408;DHT22;14583;43.604;1.364;2023-07-09T07:01:10;24.80;99.90
26408;DHT22;14583;43.604;1.364;2023-07-09T07:03:37;24.80;99.90
26408;DHT22;14583;43.604;1.364;2023-07-09T07:06:03;24.90;99.90
26408;DHT22;14583;43.604;1.364;2023-07-09T07:08:28;24.80;99.90
26408;DHT22;14583;43.604;1.364;2023-07-09T07:10:59;24.60;99.90
26408;DHT22;14583;43.604;1.364;2023-07-09T07:13:32;24.70;99.90
26408;DHT22;14583;43.604;1.364;2023-07-09T07:15:59;24.90;99.90
26408;DHT22;14583;43.604;1.364;2023-07-09T07:18:25;24.80;99.90
26408;DHT22;14583;43.604;1.364;2023-07-09T07:20:51;24.90;99.90
26408;DHT22;14583;43.604;1.364;2023-07-09T07:23:17;25.00;99.90
26408;DHT22;14583;43.604;1.364;2023-07-09T07:25:44;25.20;99.90
26408;DHT22;14583;43.604;1.364;2023-07-09T07:28:09;25.20;99.90
26408;DHT22;14583;43.604;1.364;2023-07-09T07:30:35;25.00;99.90
26408;DHT22;14583;43.604;1.364;2023-07-09T07:33:01;25.10;99.90
26408;DHT22;14583;43.604;1.364;2023-07-09T07:35:26;25.20;99.90
26408;DHT22;14583;43.604;1.364;2023-07-09T07:37:52;25.30;99.90
26408;DHT22;14583;43.604;1.364;2023-07-09T07:40:18;25.40;99.90
26408;DHT22;14583;43.604;1.364;2023-07-09T07:42:43;25.50;99.90
26408;DHT22;14583;43.604;1.364;2023-07-09T07:45:09;25.50;99.90
26408;DHT22;14583;43.604;1.364;2023-07-09T07:47:35;25.50;99.90
26408;DHT22;14583;43.604;1.364;2023-07-09T07:50:01;25.50;99.90
26408;DHT22;14583;43.604;1.364;2023-07-09T07:52:28;25.60;99.90
26408;DHT22;14583;43.604;1.364;2023-07-09T07:54:54;25.80;99.90
26408;DHT22;14583;43.604;1.364;2023-07-09T07:57:19;25.80;99.90
26408;DHT22;14583;43.604;1.364;2023-07-09T07:59:45;25.80;99.90
26408;DHT22;14583;43.604;1.364;2023-07-09T08:02:13;25.80;99.90
26408;DHT22;14583;43.604;1.364;2023-07-09T08:04:42;25.80;99.90
26408;DHT22;14583;43.604;1.364;2023-07-09T08:07:09;25.90;99.90
26408;DHT22;14583;43.604;1.364;2023-07-09T08:09:35;25.90;99.90
26408;DHT22;14583;43.604;1.364;2023-07-09T08:12:02;25.90;99.90
26408;DHT22;14583;43.604;1.364;2023-07-09T08:14:34;25.90;99.90
26408;DHT22;14583;43.604;1.364;2023-07-09T08:17:00;26.00;99.90
26408;DHT22;14583;43.604;1.364;2023-07-09T08:19:25;26.00;99.90
26408;DHT22;14583;43.604;1.364;2023-07-09T08:21:53;26.10;99.90
26408;DHT22;14583;43.604;1.364;2023-07-09T08:24:19;26.00;99.90
26408;DHT22;14583;43.604;1.364;2023-07-09T08:26:44;25.90;99.90
26408;DHT22;14583;43.604;1.364;2023-07-09T08:29:10;26.00;99.90
26408;DHT22;14583;43.604;1.364;2023-07-09T08:31:36;26.00;99.90
26408;DHT22;14583;43.604;1.364;2023-07-09T08:34:02;26.00;99.90
26408;DHT22;14583;43.604;1.364;2023-07-09T08:36:27;26.00;99.90
26408;DHT22;14583;43.604;1.364;2023-07-09T08:38:53;26.10;99.90
26408;DHT22;14583;43.604;1.364;2023-07-09T08:41:58;26.10;99.90
26408;DHT22;14583;43.604;1.364;2023-07-09T08:44:48;26.20;99.90
26408;DHT22;14583;43.604;1.364;2023-07-09T08:50:11;26.20;99.90
26408;DHT22;14583;43.604;1.364;2023-07-09T08:52:41;26.10;99.90
26408;DHT22;14583;43.604;1.364;2023-07-09T08:55:11;26.20;99.90
26408;DHT22;14583;43.604;1.364;2023-07-09T08:57:43;26.40;99.90
26408;DHT22;14583;43.604;1.364;2023-07-09T09:00:35;26.40;99.90
26408;DHT22;14583;43.604;1.364;2023-07-09T09:03:10;26.50;99.90
26408;DHT22;14583;43.604;1.364;2023-07-09T09:05:41;26.50;99.90
26408;DHT22;14583;43.604;1.364;2023-07-09T09:10:56;26.50;99.90
26408;DHT22;14583;43.604;1.364;2023-07-09T09:13:25;26.30;99.90
26408;DHT22;14583;43.604;1.364;2023-07-09T09:15:54;26.10;99.90
26408;DHT22;14583;43.604;1.364;2023-07-09T09:18:26;26.10;99.90
26408;DHT22;14583;43.604;1.364;2023-07-09T09:21:03;26.10;99.90
26408;DHT22;14583;43.604;1.364;2023-07-09T09:23:39;26.10;99.90
26408;DHT22;14583;43.604;1.364;2023-07-09T09:26:14;26.20;99.90
26408;DHT22;14583;43.604;1.364;2023-07-09T09:28:40;26.10;99.90
26408;DHT22;14583;43.604;1.364;2023-07-09T09:31:11;26.00;99.90
26408;DHT22;14583;43.604;1.364;2023-07-09T09:33:42;26.10;99.90
26408;DHT22;14583;43.604;1.364;2023-07-09T09:36:24;26.20;99.90
26408;DHT22;14583;43.604;1.364;2023-07-09T09:38:51;26.20;99.90
26408;DHT22;14583;43.604;1.364;2023-07-09T09:41:23;26.30;99.90
26408;DHT22;14583;43.604;1.364;2023-07-09T09:43:52;26.30;99.90
26408;DHT22;14583;43.604;1.364;2023-07-09T09:46:26;26.40;99.90
26408;DHT22;14583;43.604;1.364;2023-07-09T09:49:08;26.60;99.90
26408;DHT22;14583;43.604;1.364;2023-07-09T09:51:43;26.70;99.90
26408;DHT22;14583;43.604;1.364;2023-07-09T09:54:39;26.70;99.90
26408;DHT22;14583;43.604;1.364;2023-07-09T09:57:17;26.80;99.90
26408;DHT22;14583;43.604;1.364;2023-07-09T09:59:45;26.90;99.90
26408;DHT22;14583;43.604;1.364;2023-07-09T10:02:25;27.00;99.90
26408;DHT22;14583;43.604;1.364;2023-07-09T10:04:51;26.90;99.90
26408;DHT22;14583;43.604;1.364;2023-07-09T10:07:30;26.80;99.90
26408;DHT22;14583;43.604;1.364;2023-07-09T10:10:00;26.80;99.90
26408;DHT22;14583;43.604;1.364;2023-07-09T10:12:45;26.90;99.90
26408;DHT22;14583;43.604;1.364;2023-07-09T10:15:43;27.20;99.90
26408;DHT22;14583;43.604;1.364;2023-07-09T10:23:47;27.20;99.90
26408;DHT22;14583;43.604;1.364;2023-07-09T10:26:29;27.40;99.90
26408;DHT22;14583;43.604;1.364;2023-07-09T10:35:32;27.60;99.90
26408;DHT22;14583;43.604;1.364;2023-07-09T10:38:20;27.70;99.90
26408;DHT22;14583;43.604;1.364;2023-07-09T10:40:52;27.70;99.90
26408;DHT22;14583;43.604;1.364;2023-07-09T10:43:25;27.50;99.90
26408;DHT22;14583;43.604;1.364;2023-07-09T10:46:01;27.50;99.90
26408;DHT22;14583;43.604;1.364;2023-07-09T10:48:44;27.50;99.90
26408;DHT22;14583;43.604;1.364;2023-07-09T10:54:19;27.20;99.90
26408;DHT22;14583;43.604;1.364;2023-07-09T10:56:50;27.20;99.90
26408;DHT22;14583;43.604;1.364;2023-07-09T10:59:34;27.40;99.90
26408;DHT22;14583;43.604;1.364;2023-07-09T11:02:29;27.40;99.90
26408;DHT22;14583;43.604;1.364;2023-07-09T11:05:03;27.60;99.90
26408;DHT22;14583;43.604;1.364;2023-07-09T11:07:33;27.50;99.90
26408;DHT22;14583;43.604;1.364;2023-07-09T11:10:04;27.40;99.90
26408;DHT22;14583;43.604;1.364;2023-07-09T11:12:38;27.50;99.90
26408;DHT22;14583;43.604;1.364;2023-07-09T11:15:11;27.50;99.90
26408;DHT22;14583;43.604;1.364;2023-07-09T11:17:40;27.50;99.90
26408;DHT22;14583;43.604;1.364;2023-07-09T11:20:18;27.40;99.90
26408;DHT22;14583;43.604;1.364;2023-07-09T11:22:52;27.40;99.90
26408;DHT22;14583;43.604;1.364;2023-07-09T11:25:41;27.60;99.90
26408;DHT22;14583;43.604;1.364;2023-07-09T11:28:07;27.70;99.90
26408;DHT22;14583;43.604;1.364;2023-07-09T11:30:52;27.70;99.90
26408;DHT22;14583;43.604;1.364;2023-07-09T11:33:28;27.70;99.90
26408;DHT22;14583;43.604;1.364;2023-07-09T11:38:41;27.80;99.90
26408;DHT22;14583;43.604;1.364;2023-07-09T11:49:24;27.90;99.90
26408;DHT22;14583;43.604;1.364;2023-07-09T11:52:02;28.00;99.90
26408;DHT22;14583;43.604;1.364;2023-07-09T11:54:34;28.10;99.90
26408;DHT22;14583;43.604;1.364;2023-07-09T11:57:02;28.10;99.90
26408;DHT22;14583;43.604;1.364;2023-07-09T11:59:28;28.10;99.90
26408;DHT22;14583;43.604;1.364;2023-07-09T12:01:54;28.00;99.90
26408;DHT22;14583;43.604;1.364;2023-07-09T12:04:31;28.00;99.90
26408;DHT22;14583;43.604;1.364;2023-07-09T12:06:59;28.20;99.90
26408;DHT22;14583;43.604;1.364;2023-07-09T12:09:33;28.30;99.90
26408;DHT22;14583;43.604;1.364;2023-07-09T12:12:02;28.30;99.90
26408;DHT22;14583;43.604;1.364;2023-07-09T12:14:28;28.40;99.90
26408;DHT22;14583;43.604;1.364;2023-07-09T12:16:54;28.40;99.90
26408;DHT22;14583;43.604;1.364;2023-07-09T12:19:22;28.30;99.90
26408;DHT22;14583;43.604;1.364;2023-07-09T12:21:53;28.30;99.90
26408;DHT22;14583;43.604;1.364;2023-07-09T12:24:23;28.40;99.90
26408;DHT22;14583;43.604;1.364;2023-07-09T12:26:52;28.50;99.90
26408;DHT22;14583;43.604;1.364;2023-07-09T12:29:18;28.70;99.90
26408;DHT22;14583;43.604;1.364;2023-07-09T12:31:44;28.60;99.90
26408;DHT22;14583;43.604;1.364;2023-07-09T12:34:13;28.60;99.90
26408;DHT22;14583;43.604;1.364;2023-07-09T12:36:45;28.70;99.90
26408;DHT22;14583;43.604;1.364;2023-07-09T12:39:12;28.80;99.90
26408;DHT22;14583;43.604;1.364;2023-07-09T12:41:41;28.90;99.90
26408;DHT22;14583;43.604;1.364;2023-07-09T12:44:19;29.00;99.90
26408;DHT22;14583;43.604;1.364;2023-07-09T12:46:46;29.10;99.90
26408;DHT22;14583;43.604;1.364;2023-07-09T12:49:24;29.20;99.90
26408;DHT22;14583;43.604;1.364;2023-07-09T12:51:50;29.40;99.90
26408;DHT22;14583;43.604;1.364;2023-07-09T12:54:19;29.40;99.90
26408;DHT22;14583;43.604;1.364;2023-07-09T12:56:45;29.50;99.90
26408;DHT22;14583;43.604;1.364;2023-07-09T13:04:38;29.70;99.90
26408;DHT22;14583;43.604;1.364;2023-07-09T13:07:05;29.70;99.90
26408;DHT22;14583;43.604;1.364;2023-07-09T13:09:31;29.60;99.90
26408;DHT22;14583;43.604;1.364;2023-07-09T13:11:57;29.60;99.90
26408;DHT22;14583;43.604;1.364;2023-07-09T13:14:29;29.60;99.90
26408;DHT22;14583;43.604;1.364;2023-07-09T13:17:05;29.60;99.90
26408;DHT22;14583;43.604;1.364;2023-07-09T13:19:31;29.50;99.90
26408;DHT22;14583;43.604;1.364;2023-07-09T13:21:57;29.60;99.90
26408;DHT22;14583;43.604;1.364;2023-07-09T13:24:25;29.60;99.90
26408;DHT22;14583;43.604;1.364;2023-07-09T13:27:00;29.50;99.90
26408;DHT22;14583;43.604;1.364;2023-07-09T13:29:34;29.50;99.90
26408;DHT22;14583;43.604;1.364;2023-07-09T13:32:00;29.60;99.90
26408;DHT22;14583;43.604;1.364;2023-07-09T13:34:31;29.80;99.90
26408;DHT22;14583;43.604;1.364;2023-07-09T13:36:58;30.00;99.90
26408;DHT22;14583;43.604;1.364;2023-07-09T13:39:25;30.10;99.90
26408;DHT22;14583;43.604;1.364;2023-07-09T13:41:51;30.30;99.90
26408;DHT22;14583;43.604;1.364;2023-07-09T13:44:28;30.40;99.90
26408;DHT22;14583;43.604;1.364;2023-07-09T13:46:55;30.20;99.90
26408;DHT22;14583;43.604;1.364;2023-07-09T13:49:23;30.10;99.90
26408;DHT22;14583;43.604;1.364;2023-07-09T13:51:52;30.00;99.90
26408;DHT22;14583;43.604;1.364;2023-07-09T13:54:21;30.10;99.90
26408;DHT22;14583;43.604;1.364;2023-07-09T13:56:47;30.10;99.90
26408;DHT22;14583;43.604;1.364;2023-07-09T13:59:20;30.30;99.90
26408;DHT22;14583;43.604;1.364;2023-07-09T14:01:47;30.20;99.90
26408;DHT22;14583;43.604;1.364;2023-07-09T14:04:15;30.20;99.90
26408;DHT22;14583;43.604;1.364;2023-07-09T14:06:43;30.60;99.90
26408;DHT22;14583;43.604;1.364;2023-07-09T14:09:13;31.00;99.90
26408;DHT22;14583;43.604;1.364;2023-07-09T14:11:45;31.10;99.90
26408;DHT22;14583;43.604;1.364;2023-07-09T14:14:25;31.20;99.90
26408;DHT22;14583;43.604;1.364;2023-07-09T14:16:56;31.10;99.90
26408;DHT22;14583;43.604;1.364;2023-07-09T14:19:25;30.90;99.90
26408;DHT22;14583;43.604;1.364;2023-07-09T14:21:51;30.80;99.90
26408;DHT22;14583;43.604;1.364;2023-07-09T14:24:26;30.70;99.90
26408;DHT22;14583;43.604;1.364;2023-07-09T14:26:54;30.60;99.90
26408;DHT22;14583;43.604;1.364;2023-07-09T14:29:21;30.60;99.90
26408;DHT22;14583;43.604;1.364;2023-07-09T14:31:48;30.70;99.90
26408;DHT22;14583;43.604;1.364;2023-07-09T14:34:23;30.70;99.90
26408;DHT22;14583;43.604;1.364;2023-07-09T14:36:53;30.70;99.90
26408;DHT22;14583;43.604;1.364;2023-07-09T14:39:22;30.60;99.90
26408;DHT22;14583;43.604;1.364;2023-07-09T14:41:48;30.60;99.90
26408;DHT22;14583;43.604;1.364;2023-07-09T14:44:27;30.50;99.90
26408;DHT22;14583;43.604;1.364;2023-07-09T14:46:55;30.60;99.90
26408;DHT22;14583;43.604;1.364;2023-07-09T14:49:21;30.60;99.90
26408;DHT22;14583;43.604;1.364;2023-07-09T14:51:48;30.70;99.90
26408;DHT22;14583;43.604;1.364;2023-07-09T14:54:22;30.80;99.90
26408;DHT22;14583;43.604;1.364;2023-07-09T14:56:50;30.90;99.90
26408;DHT22;14583;43.604;1.364;2023-07-09T14:59:16;30.80;99.90
26408;DHT22;14583;43.604;1.364;2023-07-09T15:01:42;31.30;99.90
26408;DHT22;14583;43.604;1.364;2023-07-09T15:06:52;31.20;99.90
26408;DHT22;14583;43.604;1.364;2023-07-09T15:09:21;31.30;99.90
26408;DHT22;14583;43.604;1.364;2023-07-09T15:11:50;31.50;99.90
26408;DHT22;14583;43.604;1.364;2023-07-09T15:14:16;31.70;99.90
26408;DHT22;14583;43.604;1.364;2023-07-09T15:16:42;31.90;99.90
26408;DHT22;14583;43.604;1.364;2023-07-09T15:19:12;32.00;99.90
26408;DHT22;14583;43.604;1.364;2023-07-09T15:21:38;32.40;99.90
26408;DHT22;14583;43.604;1.364;2023-07-09T15:24:05;32.60;99.90
26408;DHT22;14583;43.604;1.364;2023-07-09T15:26:36;32.70;99.90
26408;DHT22;14583;43.604;1.364;2023-07-09T15:29:02;32.50;99.90
26408;DHT22;14583;43.604;1.364;2023-07-09T15:31:28;32.70;99.90
26408;DHT22;14583;43.604;1.364;2023-07-09T15:33:54;32.80;99.90
26408;DHT22;14583;43.604;1.364;2023-07-09T15:36:19;32.70;99.90
26408;DHT22;14583;43.604;1.364;2023-07-09T15:38:45;32.70;99.90
26408;DHT22;14583;43.604;1.364;2023-07-09T15:41:12;32.60;99.90
26408;DHT22;14583;43.604;1.364;2023-07-09T15:43:38;32.50;99.90
26408;DHT22;14583;43.604;1.364;2023-07-09T15:46:04;32.60;99.90
26408;DHT22;14583;43.604;1.364;2023-07-09T15:48:35;32.40;99.90
26408;DHT22;14583;43.604;1.364;2023-07-09T15:51:03;32.30;99.90
26408;DHT22;14583;43.604;1.364;2023-07-09T15:53:29;32.70;99.90
26408;DHT22;14583;43.604;1.364;2023-07-09T15:56:26;33.20;99.90
26408;DHT22;14583;43.604;1.364;2023-07-09T15:58:53;33.10;99.90
26408;DHT22;14583;43.604;1.364;2023-07-09T16:01:20;33.40;99.90
26408;DHT22;14583;43.604;1.364;2023-07-09T16:03:51;33.40;99.90
26408;DHT22;14583;43.604;1.364;2023-07-09T16:06:18;33.30;99.90
26408;DHT22;14583;43.604;1.364;2023-07-09T16:08:44;33.10;99.90
26408;DHT22;14583;43.604;1.364;2023-07-09T16:11:17;33.10;99.90
26408;DHT22;14583;43.604;1.364;2023-07-09T16:13:43;33.00;99.90
26408;DHT22;14583;43.604;1.364;2023-07-09T16:16:13;33.30;99.90
26408;DHT22;14583;43.604;1.364;2023-07-09T16:18:39;33.70;99.90
26408;DHT22;14583;43.604;1.364;2023-07-09T16:21:07;33.90;99.90
26408;DHT22;14583;43.604;1.364;2023-07-09T16:23:34;33.50;99.90
26408;DHT22;14583;43.604;1.364;2023-07-09T16:25:59;33.80;99.90